Scroll down
FLIGHT INFORMATION
Canadian Airlines

CDN801

At Arrival Gate

CYYZ
 VHHH
DATE: 2019-08-02
GATE:  -
GATE DEPARTURE: 01:37
TAKEOFF: 01:53
DATE: 2019-08-02
GATE:  -
LANDING: 16:26
GATE ARRIVAL: 16:34
FLIGHT DATA
Crew: BIGSWEDE
Speed: 510 kts Altitude: 36000 ft
Stage Length: 6776 nm
Route: CYYZ TONNY YYB 5080N 5581N 6083N 6585N 7088N YRB 80N10 82N30 LAHEY LETUN LOMRI IDIMA OGTIL GIKSI TEMGA ABDAG GANPA RUSED ARTUN NAROV DEBED PITIL OLDEP OKUNI RELSO RIKLI UNARU IDRAN URIPA BALOP TINEG TEBRI GABAL NEKLU BIGMA SULOK BURIM PICAS ZOBUL POLHO UKBAD TMR TZH LARAD UBTAB SJW OLRAP WXI AKOMA IDULA ZHO OBLIK ESDOS HOK LKO DAPRO AKUBA LUMKO PAVTU LIG NIVEM BEMAG NNX WYN SANIP NOMAR UBLIM NLG ZUH SIERA VHHH
Block Time: 15 Flight Time: 14.6
Fuel Used: 329346 LB
TRACK DATA
50000 FT1000 KT
AIRCRAFT INFORMATION
Aircraft Type: B744
Registration: C-GMWW
SELCAL: ABEQ MSN/LN: 24883 / 823
Operator: CANADIAN AIRLINES
Flights: 4 Block Time: 11.3 Flight Time: 10.2
Fuel Used: 521266 LB
  • DEPARTURE INFORMATION
    Date: 2019-08-02
    Airport: CYYZ
    Gate:  -
    Gate Departure: 01:37
    Takeoff: 01:53
    ARRIVAL INFORMATION
    Date: 2019-08-02
    Airport: VHHH
    Gate:  -
    Landing: 16:26
    Gate Arrival: 16:34
  • FLIGHT DATA
    Crew: BIGSWEDE
    Speed: 510 kts Altitude: 36000 ft
    Stage Length: 3659 nm
    Route: CYYZ TONNY YYB 5080N 5581N 6083N 6585N 7088N YRB 80N10 82N30 LAHEY LETUN LOMRI IDIMA OGTIL GIKSI TEMGA ABDAG GANPA RUSED ARTUN NAROV DEBED PITIL OLDEP OKUNI RELSO RIKLI UNARU IDRAN URIPA BALOP TINEG TEBRI GABAL NEKLU BIGMA SULOK BURIM PICAS ZOBUL POLHO UKBAD TMR TZH LARAD UBTAB SJW OLRAP WXI AKOMA IDULA ZHO OBLIK ESDOS HOK LKO DAPRO AKUBA LUMKO PAVTU LIG NIVEM BEMAG NNX WYN SANIP NOMAR UBLIM NLG ZUH SIERA VHHH
    Block Time: 15 Flight Time: 14.6
    Fuel Used: 329346 LB
  • AIRCRAFT INFORMATION
    Aircraft Type: B744
    Registration: C-GMWW
    SELCAL: ABEQ MSN/LN: 24883 / 823
    Operator: Canadian Airlines
    Flights: 4 Block Time: 11.3 Flight Time: 10.2
    Fuel Used: 521266 LB

DATALINK LOG | Newest first | Current as of: 2020-09-30 00:30:06
LABEL SEQUENCE CONTENT Dn/Up
QD342816:34 51.3▼ Dn
QC273616:26▼ Dn
2U3442VHHH 020830Z 10018KT 9999 FEW016 31/25 Q1001 NOSIG▲ Up
2S1351VHHH▼ Dn
GA1814ADVANCED GATE ASSIGNMENTS NOT YET AVAILABLE AT THIS AIRPORT▲ Up
GR3253VHHH 16:22 MAAS 00 YP/UM 00/00 WCHR/S/C 00/00/00 HI-VAL NO DIPL/VIP NO▼ Dn
2U1714VHHH 020700Z 10017KT 9999 FEW016 SCT028 30/25 Q1001 NOSIG▲ Up
2S3118VHHH▼ Dn
2U5240VHHH 020630Z 10017KT 9999 FEW014 SCT028 30/25 Q1001 NOSIG▲ Up
2S1430VHHH▼ Dn
5R1338ZOBUL 13:00z FL363 POLHO 13:13z UKBAD M0.83 51.1 -20 327/16 RW07L 16:19z▼ Dn
QB532601:53▼ Dn
QA372301:37 381.3▼ Dn
Q04612[LINK ACK]▲ Up
Q02443[LINK TEST]▼ Dn
A34611CLEARED TO VHHH VIA IKLEN2 TONNY DCT YYB DCT 50N080W 55N081W 60N083W 65N085W 70N088W DCT YRB DCT 80N110W 82N130W DCT LAHEY DCT LETUN T571 IDIMA M172 GIKSI N615 SULOK Y327 POLHO G218 TMR B458 WXI A461 LIG R473 WYN W18 NLG W23 ZUH R473 SIERA. SQUAWK 1721.▲ Up
Q04357[LINK ACK]▲ Up
Q04259[LINK TEST]▼ Dn


AIRCRAFT HISTORY
FLIGHT DATE FLIGHT NO. ORIGIN DESTINATION ROUTE BLOCK TIME FLIGHT TIME FUEL USED (LB) PILOT
2019-08-02CDN801CYYZ VHHH CYYZ TONNY YYB 5080N 5581N 6083N 6585N 7088N YRB 80N10 82N30 LAHEY LETUN LOMRI IDIMA OGTIL GIKSI TEMGA ABDAG GANPA RUSED ARTUN NAROV DEBED PITIL OLDEP OKUNI RELSO RIKLI UNARU IDRAN URIPA BALOP TINEG TEBRI GABAL NEKLU BIGMA SULOK BURIM PICAS ZOBUL POLHO UKBAD TMR TZH LARAD UBTAB SJW OLRAP WXI AKOMA IDULA ZHO OBLIK ESDOS HOK LKO DAPRO AKUBA LUMKO PAVTU LIG NIVEM BEMAG NNX WYN SANIP NOMAR UBLIM NLG ZUH SIERA VHHH1514.6329346BigSwede
2018-12-25CDN748TNCM CYYZ JUICE LARPP PASIC STT PALCO CHAKA SJU JAAWS UTAHS ELMUC MYSTR LERUG DUNED CERDA LETON ILIDO JAINS OLDEY ILM RIC56 FAK LDN WOZEE4.74.389902Jason Brown
2018-12-24CDN745CYUL TNCM WARDS MHT BOS ACK LARGE BOVIC BDA GECAL TALSU NUBUS KEEKA TRNKY PJM4.13.879254Jason Brown
2018-07-02CDN901CYYZ CYUL 1.30.922763Jason Brown